createdAt,value
2022-12-22T00:01:49.722Z,9.32
2022-12-22T00:04:55.151Z,9.39
2022-12-22T00:08:00.032Z,9.64
2022-12-22T00:11:05.295Z,9.61
2022-12-22T00:14:10.306Z,9.65
2022-12-22T00:17:20.418Z,9.58
2022-12-22T00:20:37.469Z,9.90
2022-12-22T00:23:42.630Z,9.93
2022-12-22T00:26:49.743Z,10.01
2022-12-22T00:30:01.413Z,10.21
2022-12-22T00:33:07.935Z,10.25
2022-12-22T00:36:12.664Z,10.32
2022-12-22T00:39:17.783Z,10.15
2022-12-22T00:42:22.867Z,10.26
2022-12-22T00:45:28.351Z,10.25
2022-12-22T00:48:43.097Z,10.36
2022-12-22T00:51:49.254Z,10.20
2022-12-22T00:54:54.387Z,10.39
2022-12-22T00:58:01.438Z,10.30
2022-12-22T01:01:06.297Z,10.17
2022-12-22T01:04:11.523Z,10.10
2022-12-22T01:07:16.829Z,9.84
2022-12-22T01:10:22.233Z,10.06
2022-12-22T01:13:30.227Z,10.01
2022-12-22T01:16:35.770Z,9.84
2022-12-22T01:19:40.802Z,9.88
2022-12-22T01:22:46.804Z,9.83
2022-12-22T01:25:51.766Z,9.73
2022-12-22T01:28:56.956Z,9.48
2022-12-22T01:32:01.786Z,9.50
2022-12-22T01:35:06.554Z,9.56
2022-12-22T01:38:11.592Z,9.51
2022-12-22T01:41:18.299Z,9.40
2022-12-22T01:44:32.248Z,9.50
2022-12-22T01:47:46.267Z,9.35
2022-12-22T01:50:54.829Z,9.36
2022-12-22T01:54:00.216Z,9.26
2022-12-22T01:57:07.402Z,9.25
2022-12-22T02:00:12.121Z,9.25
2022-12-22T02:03:19.651Z,9.30
2022-12-22T02:06:59.529Z,9.28
2022-12-22T02:10:04.990Z,9.31
2022-12-22T02:13:25.947Z,9.26
2022-12-22T02:16:44.557Z,9.15
2022-12-22T02:20:20.491Z,9.28
2022-12-22T02:23:56.624Z,9.31
2022-12-22T02:27:06.152Z,9.35
2022-12-22T02:30:19.672Z,9.32
2022-12-22T02:33:25.005Z,9.35
2022-12-22T02:36:51.770Z,9.27
2022-12-22T02:40:40.842Z,9.30
2022-12-22T02:44:14.284Z,9.16
2022-12-22T02:47:29.411Z,9.15
2022-12-22T02:50:50.281Z,9.12
2022-12-22T02:53:57.638Z,9.04
2022-12-22T02:57:03.328Z,9.14
2022-12-22T03:00:08.366Z,9.00
2022-12-22T03:03:13.311Z,9.13
2022-12-22T03:06:18.440Z,8.95
2022-12-22T03:09:23.375Z,8.95
2022-12-22T03:12:28.388Z,8.94
2022-12-22T03:15:33.432Z,8.90
2022-12-22T03:18:38.541Z,8.81
2022-12-22T03:21:43.461Z,8.81
2022-12-22T03:24:48.227Z,8.81
2022-12-22T03:27:34.573Z,9.00
2022-12-22T03:30:20.777Z,8.97
2022-12-22T03:33:07.479Z,8.98
2022-12-22T03:35:54.415Z,9.09
2022-12-22T03:38:40.797Z,9.01
2022-12-22T03:41:45.878Z,9.05
2022-12-22T03:44:51.156Z,9.13
2022-12-22T03:47:37.375Z,9.01
2022-12-22T03:50:23.762Z,9.01
2022-12-22T03:53:10.452Z,9.18
2022-12-22T03:55:56.793Z,9.04
2022-12-22T03:58:43.307Z,8.99
2022-12-22T04:01:29.961Z,9.05
2022-12-22T04:04:18.949Z,9.05
2022-12-22T04:07:05.348Z,8.88
2022-12-22T04:10:10.647Z,9.08
2022-12-22T04:12:57.034Z,8.92
2022-12-22T04:15:43.195Z,8.91
2022-12-22T04:18:29.540Z,9.10
2022-12-22T04:21:16.244Z,8.98
2022-12-22T04:24:03.076Z,9.08
2022-12-22T04:26:50.156Z,9.04
2022-12-22T04:29:36.758Z,8.99
2022-12-22T04:32:22.976Z,9.27
2022-12-22T04:35:10.129Z,9.25
2022-12-22T04:37:56.461Z,9.36
2022-12-22T04:40:43.061Z,9.23
2022-12-22T04:43:29.702Z,9.26
2022-12-22T04:46:16.146Z,9.26
2022-12-22T04:49:02.382Z,9.29
2022-12-22T04:51:48.860Z,9.19
2022-12-22T04:54:35.384Z,9.10
2022-12-22T04:57:22.104Z,9.24
2022-12-22T05:00:10.487Z,9.35
2022-12-22T05:02:57.238Z,9.27
2022-12-22T05:05:43.722Z,9.39
2022-12-22T05:08:30.290Z,9.39
2022-12-22T05:11:16.543Z,9.26
2022-12-22T05:14:07.227Z,9.44
2022-12-22T05:16:53.770Z,9.46
2022-12-22T05:19:39.986Z,9.34
2022-12-22T05:22:26.167Z,9.43
2022-12-22T05:25:13.148Z,9.53
2022-12-22T05:27:59.634Z,9.51
2022-12-22T05:30:45.802Z,9.49
2022-12-22T05:33:32.267Z,9.46
2022-12-22T05:36:19.137Z,9.40
2022-12-22T05:39:05.802Z,9.17
2022-12-22T05:41:51.977Z,9.32
2022-12-22T05:44:38.471Z,9.25
2022-12-22T05:47:24.927Z,9.28
2022-12-22T05:50:13.077Z,9.09
2022-12-22T05:52:59.655Z,9.01
2022-12-22T05:55:45.999Z,8.92
2022-12-22T05:58:33.103Z,8.70
2022-12-22T06:01:19.560Z,8.57
2022-12-22T06:04:05.923Z,8.17
2022-12-22T06:06:52.108Z,8.14
2022-12-22T06:09:38.887Z,8.06
2022-12-22T06:12:25.368Z,7.98
2022-12-22T06:15:13.192Z,7.92
2022-12-22T06:17:59.545Z,8.04
2022-12-22T06:20:47.144Z,8.10
2022-12-22T06:23:33.615Z,8.34
2022-12-22T06:26:20.602Z,8.43
2022-12-22T06:29:07.029Z,8.10
2022-12-22T06:31:53.342Z,8.42
2022-12-22T06:34:39.641Z,8.47
2022-12-22T06:37:26.385Z,8.69
2022-12-22T06:40:12.985Z,8.73
2022-12-22T06:43:09.586Z,8.94
2022-12-22T06:45:56.509Z,8.84
2022-12-22T06:48:43.108Z,9.17
2022-12-22T06:51:29.666Z,9.40
2022-12-22T06:54:19.468Z,9.51
2022-12-22T06:57:08.742Z,9.67
2022-12-22T06:59:57.626Z,9.62
2022-12-22T07:02:44.633Z,9.80
2022-12-22T07:05:31.806Z,9.70
2022-12-22T07:08:18.477Z,9.65
2022-12-22T07:11:04.760Z,9.68
2022-12-22T07:13:50.905Z,9.56
2022-12-22T07:16:37.256Z,9.52
2022-12-22T07:19:23.592Z,9.52
2022-12-22T07:22:09.868Z,9.38
2022-12-22T07:24:56.429Z,9.25
2022-12-22T07:27:42.803Z,9.23
2022-12-22T07:30:29.636Z,9.19
2022-12-22T07:33:16.143Z,9.33
2022-12-22T07:36:05.156Z,9.26
2022-12-22T07:38:52.073Z,9.33
2022-12-22T07:41:57.019Z,9.51
2022-12-22T07:44:43.261Z,9.42
2022-12-22T07:47:35.011Z,9.48
2022-12-22T07:50:32.770Z,9.55
2022-12-22T07:53:19.302Z,9.41
2022-12-22T07:56:06.357Z,9.38
2022-12-22T07:58:52.823Z,9.40
2022-12-22T08:01:40.203Z,9.83
2022-12-22T08:04:27.058Z,10.15
2022-12-22T08:07:15.019Z,10.37
2022-12-22T08:10:01.641Z,10.43
2022-12-22T08:12:47.973Z,10.72
2022-12-22T08:15:34.250Z,10.94
2022-12-22T08:18:20.938Z,11.02
2022-12-22T08:21:08.656Z,11.06
2022-12-22T08:23:55.400Z,11.05
2022-12-22T08:26:46.347Z,11.05
2022-12-22T08:29:38.695Z,10.97
2022-12-22T08:32:24.987Z,10.82
2022-12-22T08:35:11.240Z,10.99
2022-12-22T08:37:57.749Z,10.94
2022-12-22T08:40:45.396Z,10.79
2022-12-22T08:43:33.061Z,10.83
2022-12-22T08:46:19.519Z,10.89
2022-12-22T08:49:06.009Z,10.86
2022-12-22T08:51:53.022Z,10.85
2022-12-22T08:54:39.837Z,10.83
2022-12-22T08:57:26.162Z,10.98
2022-12-22T09:00:13.526Z,11.08
2022-12-22T09:03:00.493Z,11.43
2022-12-22T09:05:46.861Z,11.56
2022-12-22T09:08:33.360Z,11.60
2022-12-22T09:11:19.678Z,11.57
2022-12-22T09:14:06.567Z,11.41
2022-12-22T09:16:52.956Z,11.05
2022-12-22T09:19:39.647Z,10.96
2022-12-22T09:22:28.408Z,10.92
2022-12-22T09:25:17.906Z,10.76
2022-12-22T09:28:07.586Z,10.88
2022-12-22T09:30:53.967Z,10.81
2022-12-22T09:33:40.088Z,10.88
2022-12-22T09:36:29.506Z,11.07
2022-12-22T09:39:16.754Z,11.12
2022-12-22T09:42:03.590Z,11.03
2022-12-22T09:44:51.775Z,10.88
2022-12-22T09:47:41.833Z,10.80
2022-12-22T09:50:30.495Z,10.40
2022-12-22T09:53:22.397Z,10.61
2022-12-22T09:56:14.591Z,10.56
2022-12-22T09:59:01.251Z,10.58
2022-12-22T10:02:27.069Z,10.55
2022-12-22T10:05:30.782Z,10.53
2022-12-22T10:08:31.845Z,10.31
2022-12-22T10:11:19.042Z,10.34
2022-12-22T10:14:05.398Z,10.38
2022-12-22T10:17:14.374Z,10.47
2022-12-22T10:20:19.088Z,10.35
2022-12-22T10:23:21.756Z,10.39
2022-12-22T10:26:30.237Z,10.45
2022-12-22T10:29:18.317Z,10.53
2022-12-22T10:32:13.309Z,10.47
2022-12-22T10:35:03.050Z,10.56
2022-12-22T10:37:49.695Z,10.51
2022-12-22T10:40:46.396Z,10.60
2022-12-22T10:43:37.344Z,10.68
2022-12-22T10:46:51.881Z,10.68
2022-12-22T10:52:31.952Z,10.74
2022-12-22T10:55:28.496Z,10.82
2022-12-22T10:58:21.647Z,10.80
2022-12-22T11:01:11.239Z,10.84
2022-12-22T11:04:14.325Z,10.87
2022-12-22T11:07:10.198Z,10.97
2022-12-22T11:09:56.627Z,11.01
2022-12-22T11:13:20.003Z,11.14
2022-12-22T11:16:09.797Z,11.14
2022-12-22T11:19:24.358Z,11.19
2022-12-22T11:22:34.198Z,11.29
2022-12-22T11:25:40.148Z,11.27
2022-12-22T11:29:11.297Z,11.13
2022-12-22T11:32:40.030Z,10.85
2022-12-22T11:35:42.200Z,11.21
2022-12-22T11:38:34.692Z,11.24
2022-12-22T11:41:33.540Z,11.26
2022-12-22T11:44:39.858Z,11.27
2022-12-22T11:47:43.470Z,11.06
2022-12-22T11:51:06.596Z,11.25
2022-12-22T11:54:34.634Z,11.45
2022-12-22T11:57:32.702Z,11.42
2022-12-22T12:00:19.875Z,11.26
2022-12-22T12:03:24.143Z,11.05
2022-12-22T12:06:23.541Z,10.93
2022-12-22T12:09:35.432Z,11.10
2022-12-22T12:12:57.663Z,11.12
2022-12-22T12:16:13.421Z,11.03
2022-12-22T12:19:09.667Z,11.25
2022-12-22T12:22:03.770Z,11.30
2022-12-22T12:24:59.784Z,11.23
2022-12-22T12:28:13.438Z,10.97
2022-12-22T12:31:01.148Z,10.62
2022-12-22T12:33:53.043Z,10.55
2022-12-22T12:36:53.310Z,10.47
2022-12-22T12:39:44.238Z,10.28
2022-12-22T12:42:39.587Z,10.34
2022-12-22T12:45:32.057Z,10.37
2022-12-22T12:48:24.483Z,10.40
2022-12-22T12:51:46.363Z,10.40
2022-12-22T12:54:32.672Z,10.36
2022-12-22T12:57:47.263Z,10.39
2022-12-22T13:00:33.684Z,10.46
2022-12-22T13:03:53.333Z,10.43
2022-12-22T13:06:51.846Z,10.47
2022-12-22T13:10:08.337Z,10.53
2022-12-22T13:12:54.854Z,10.26
2022-12-22T13:15:42.794Z,10.37
2022-12-22T13:18:29.503Z,10.40
2022-12-22T13:21:52.334Z,10.51
2022-12-22T13:24:49.051Z,10.72
2022-12-22T13:27:36.599Z,10.73
2022-12-22T13:30:23.167Z,10.76
2022-12-22T13:33:15.565Z,10.70
2022-12-22T13:36:03.329Z,10.71
2022-12-22T13:39:02.851Z,10.99
2022-12-22T13:41:50.885Z,10.94
2022-12-22T13:44:38.575Z,10.88
2022-12-22T13:47:25.567Z,10.98
2022-12-22T13:50:26.305Z,10.97
2022-12-22T13:53:42.114Z,11.02
2022-12-22T13:56:34.873Z,11.13
2022-12-22T13:59:36.932Z,11.02
2022-12-22T14:02:23.713Z,10.96
2022-12-22T14:05:13.472Z,10.87
2022-12-22T14:08:03.223Z,10.96
2022-12-22T14:10:50.295Z,10.96
2022-12-22T14:13:39.534Z,11.09
2022-12-22T14:16:25.932Z,11.08
2022-12-22T14:19:17.689Z,11.17
2022-12-22T14:22:08.646Z,11.08
2022-12-22T14:24:59.658Z,11.02
2022-12-22T14:27:48.855Z,10.98
2022-12-22T14:30:41.335Z,10.98
2022-12-22T14:33:33.613Z,10.96
2022-12-22T14:36:29.810Z,10.88
2022-12-22T14:39:33.337Z,10.79
2022-12-22T14:42:19.992Z,10.81
2022-12-22T14:45:15.282Z,10.79
2022-12-22T14:48:01.916Z,10.85
2022-12-22T14:50:50.195Z,10.81
2022-12-22T14:53:44.958Z,10.87
2022-12-22T14:56:31.409Z,10.78
2022-12-22T14:59:27.711Z,10.85
2022-12-22T15:02:36.634Z,10.74
2022-12-22T15:05:33.264Z,10.70
2022-12-22T15:08:40.086Z,10.72
2022-12-22T15:11:26.906Z,10.63
2022-12-22T15:14:19.662Z,10.57
2022-12-22T15:17:15.203Z,10.67
2022-12-22T15:20:01.844Z,10.63
2022-12-22T15:22:48.472Z,10.64
2022-12-22T15:25:35.192Z,10.68
2022-12-22T15:28:21.558Z,10.61
2022-12-22T15:31:17.436Z,10.62
2022-12-22T15:34:10.056Z,10.63
2022-12-22T15:36:56.257Z,10.49
2022-12-22T15:39:42.559Z,10.54
2022-12-22T15:42:29.065Z,10.38
2022-12-22T15:45:17.005Z,10.18
2022-12-22T15:48:06.271Z,10.28
2022-12-22T15:50:54.971Z,10.20
2022-12-22T15:53:41.518Z,10.14
2022-12-22T15:56:32.054Z,10.25
2022-12-22T15:59:23.570Z,9.98
2022-12-22T16:02:14.304Z,10.15
2022-12-22T16:05:00.892Z,10.15
2022-12-22T16:07:47.423Z,10.08
2022-12-22T16:10:34.648Z,10.16
2022-12-22T16:13:24.233Z,10.17
2022-12-22T16:16:11.661Z,10.10
2022-12-22T16:18:58.270Z,9.71
2022-12-22T16:21:48.760Z,9.96
2022-12-22T16:24:36.138Z,9.96
2022-12-22T16:27:22.539Z,9.86
2022-12-22T16:30:22.350Z,9.83
2022-12-22T16:33:11.924Z,9.79
2022-12-22T16:35:58.385Z,9.63
2022-12-22T16:38:45.933Z,9.46
2022-12-22T16:41:32.615Z,9.49
2022-12-22T16:47:33.152Z,9.64
2022-12-22T16:50:32.125Z,9.60
2022-12-22T16:53:18.671Z,9.30
2022-12-22T16:56:05.127Z,9.25
2022-12-22T16:58:51.447Z,9.09
2022-12-22T17:01:52.307Z,9.02
2022-12-22T17:04:38.759Z,8.90
2022-12-22T17:07:25.289Z,8.86
2022-12-22T17:10:15.316Z,8.87
2022-12-22T17:13:02.757Z,8.87
2022-12-22T17:15:49.391Z,8.83
2022-12-22T17:18:36.258Z,8.82
2022-12-22T17:21:22.991Z,8.99
2022-12-22T17:24:12.802Z,8.90
2022-12-22T17:27:05.721Z,8.92
2022-12-22T17:29:53.765Z,8.94
2022-12-22T17:32:40.322Z,8.92
2022-12-22T17:35:28.887Z,8.99
2022-12-22T17:38:18.448Z,9.05
2022-12-22T17:41:04.757Z,9.02
2022-12-22T17:43:51.365Z,9.11
2022-12-22T17:46:37.770Z,9.22
2022-12-22T17:49:24.130Z,9.39
2022-12-22T17:52:22.120Z,9.28
2022-12-22T17:55:49.955Z,9.34
2022-12-22T17:58:27.510Z,9.35
2022-12-22T18:01:32.105Z,9.29
2022-12-22T18:04:18.743Z,9.26
2022-12-22T18:07:05.172Z,9.28
2022-12-22T18:09:58.924Z,9.37
2022-12-22T18:12:45.619Z,9.20
2022-12-22T18:15:32.181Z,9.33
2022-12-22T18:18:18.656Z,9.31
2022-12-22T18:21:08.121Z,9.16
2022-12-22T18:23:54.728Z,9.17
2022-12-22T18:26:40.771Z,9.37
2022-12-22T18:29:27.264Z,9.24
2022-12-22T18:32:22.926Z,9.23
2022-12-22T18:35:13.381Z,9.05
2022-12-22T18:38:00.290Z,9.29
2022-12-22T18:40:47.745Z,9.11
2022-12-22T18:43:33.928Z,9.21
2022-12-22T18:46:20.945Z,9.17
2022-12-22T18:49:07.434Z,9.20
2022-12-22T18:51:53.917Z,9.21
2022-12-22T18:54:40.620Z,9.28
2022-12-22T18:57:27.040Z,9.26
2022-12-22T19:00:17.945Z,9.23
2022-12-22T19:03:15.668Z,9.20
2022-12-22T19:06:02.241Z,9.48
2022-12-22T19:08:49.449Z,9.31
2022-12-22T19:11:36.016Z,9.31
2022-12-22T19:14:22.765Z,9.08
2022-12-22T19:17:17.996Z,9.06
2022-12-22T19:20:04.649Z,9.28
2022-12-22T19:22:51.687Z,9.10
2022-12-22T19:25:38.039Z,9.24
2022-12-22T19:28:31.990Z,9.17
2022-12-22T19:31:31.695Z,9.03
2022-12-22T19:34:21.138Z,8.99
2022-12-22T19:37:09.477Z,9.11
2022-12-22T19:39:56.111Z,9.33
2022-12-22T19:42:44.853Z,9.35
2022-12-22T19:45:36.800Z,9.27
2022-12-22T19:48:26.229Z,9.20
2022-12-22T19:51:17.817Z,9.08
2022-12-22T19:54:06.415Z,9.03
2022-12-22T19:56:55.930Z,9.10
2022-12-22T19:59:46.123Z,9.21
2022-12-22T20:02:33.370Z,9.21
2022-12-22T20:05:22.779Z,9.15
2022-12-22T20:08:09.494Z,9.12
2022-12-22T20:10:58.659Z,8.97
2022-12-22T20:13:46.661Z,8.92
2022-12-22T20:16:33.162Z,9.26
2022-12-22T20:19:19.961Z,9.27
2022-12-22T20:22:06.518Z,9.03
2022-12-22T20:24:54.582Z,8.94
2022-12-22T20:27:41.270Z,8.88
2022-12-22T20:30:30.393Z,9.00
2022-12-22T20:33:19.562Z,9.21
2022-12-22T20:36:18.689Z,9.20
2022-12-22T20:39:13.880Z,9.16
2022-12-22T20:42:00.566Z,9.25
2022-12-22T20:45:03.005Z,9.18
2022-12-22T20:47:52.265Z,9.08
2022-12-22T20:50:38.396Z,8.99
2022-12-22T20:53:24.970Z,8.85
2022-12-22T20:56:31.606Z,8.78
2022-12-22T20:59:20.917Z,8.91
2022-12-22T21:02:22.087Z,8.94
2022-12-22T21:05:08.975Z,8.88
2022-12-22T21:07:55.508Z,8.83
2022-12-22T21:10:43.766Z,8.86
2022-12-22T21:13:30.090Z,8.76
2022-12-22T21:16:19.032Z,8.64
2022-12-22T21:19:05.584Z,8.59
2022-12-22T21:21:52.003Z,8.67
2022-12-22T21:24:38.538Z,8.71
2022-12-22T21:27:25.332Z,8.62
2022-12-22T21:30:21.497Z,8.58
2022-12-22T21:33:08.767Z,8.54
2022-12-22T21:35:57.083Z,8.56
2022-12-22T21:38:43.548Z,8.50
2022-12-22T21:41:48.283Z,8.45
2022-12-22T21:44:35.808Z,8.40
2022-12-22T21:47:22.046Z,8.50
2022-12-22T21:50:18.459Z,8.38
2022-12-22T21:53:04.999Z,8.38
2022-12-22T21:55:51.666Z,8.31
2022-12-22T21:58:38.229Z,8.42
2022-12-22T22:01:24.686Z,8.40
2022-12-22T22:04:11.640Z,8.26
2022-12-22T22:06:57.987Z,8.05
2022-12-22T22:09:44.751Z,8.25
2022-12-22T22:12:35.122Z,8.07
2022-12-22T22:15:24.154Z,8.09
2022-12-22T22:18:19.355Z,8.02
2022-12-22T22:21:08.622Z,8.07
2022-12-22T22:23:54.775Z,8.14
2022-12-22T22:26:43.919Z,8.13
2022-12-22T22:29:30.404Z,8.21
2022-12-22T22:32:17.009Z,8.21
2022-12-22T22:35:03.660Z,8.24
2022-12-22T22:37:51.329Z,8.13
2022-12-22T22:40:37.850Z,8.11
2022-12-22T22:43:24.275Z,8.10
2022-12-22T22:46:14.241Z,8.09
2022-12-22T22:49:05.340Z,8.24
2022-12-22T22:51:51.598Z,8.23
2022-12-22T22:54:37.895Z,8.42
2022-12-22T22:57:26.803Z,8.38
2022-12-22T23:00:16.373Z,8.37
2022-12-22T23:03:04.514Z,8.43
2022-12-22T23:05:50.771Z,8.45
2022-12-22T23:08:37.543Z,8.50
2022-12-22T23:11:24.354Z,8.51
2022-12-22T23:14:10.740Z,8.48
2022-12-22T23:16:57.420Z,8.35
2022-12-22T23:19:44.152Z,8.28
2022-12-22T23:22:30.730Z,8.19
2022-12-22T23:25:17.115Z,8.34
2022-12-22T23:28:03.891Z,8.33
2022-12-22T23:30:52.890Z,8.35
2022-12-22T23:33:39.398Z,8.34
2022-12-22T23:36:26.155Z,8.45
2022-12-22T23:39:13.706Z,8.58
2022-12-22T23:42:00.314Z,8.44
2022-12-22T23:44:48.059Z,8.60
2022-12-22T23:47:34.614Z,8.44
2022-12-22T23:50:21.527Z,8.18
2022-12-22T23:53:08.058Z,8.33
2022-12-22T23:55:54.329Z,8.22
2022-12-22T23:58:40.662Z,8.30
